KAWM/AWM METAR and TAF weather

Enter ICAO airport designator
Station Type Date Time Source
KAWM METAR 2020/04/09 18:53 UTC NOAA

KAWM 091853Z AUTO 02007KT 10SM CLR 19/02 A2996 RMK AO2 SLP141 T01940022


Station Type Date Time Source
KAWM Decoded METAR 2020/04/09 18:53 UTC NOAA

WEST MEMPHIS MUNICIPAL AIRPORT, AR, United States (KAWM) 35-08N 090-14W
Apr 09, 2020 - 02:53 PM EDT / 2020.04.09 1853 UTC
Wind: from the NNE (020 degrees) at 8 MPH (7 KT):0
Visibility: 10 mile(s):0
Sky conditions: clear
Temperature: 66.9 F (19.4 C)
Dew Point: 36.0 F (2.2 C)
Relative Humidity: 31%
Pressure (altimeter): 29.96 in. Hg (1014 hPa)
ob: KAWM 091853Z AUTO 02007KT 10SM CLR 19/02 A2996 RMK AO2 SLP141 T01940022
cycle: 19

Station Type Date Time Source
KAWM TAF UTC NOAA

Error!

Example: see airport list